sensor_id;sensor_type;location;lat;lon;timestamp;P1;durP1;ratioP1;P2;durP2;ratioP2
39680;SDS011;26327;42.550;23.120;2022-07-12T07:27:10;10.63;;;2.58;;
39680;SDS011;26327;42.550;23.120;2022-07-12T07:29:36;9.32;;;3.95;;
39680;SDS011;26327;42.550;23.120;2022-07-12T07:32:20;8.45;;;2.15;;
39680;SDS011;26327;42.550;23.120;2022-07-12T07:34:45;9.07;;;2.08;;
39680;SDS011;26327;42.550;23.120;2022-07-12T07:37:11;5.22;;;2.00;;
39680;SDS011;26327;42.550;23.120;2022-07-12T07:39:36;7.55;;;2.00;;
39680;SDS011;26327;42.550;23.120;2022-07-12T07:42:03;3.97;;;1.98;;
39680;SDS011;26327;42.550;23.120;2022-07-12T07:44:29;7.18;;;1.95;;
39680;SDS011;26327;42.550;23.120;2022-07-12T07:46:54;5.50;;;1.80;;
39680;SDS011;26327;42.550;23.120;2022-07-12T07:49:19;3.97;;;1.42;;
39680;SDS011;26327;42.550;23.120;2022-07-12T07:51:45;10.40;;;2.30;;
39680;SDS011;26327;42.550;23.120;2022-07-12T07:54:10;5.80;;;2.00;;
39680;SDS011;26327;42.550;23.120;2022-07-12T07:56:36;6.88;;;2.15;;
39680;SDS011;26327;42.550;23.120;2022-07-12T07:59:01;4.70;;;1.65;;
39680;SDS011;26327;42.550;23.120;2022-07-12T08:01:26;5.97;;;1.70;;
39680;SDS011;26327;42.550;23.120;2022-07-12T08:04:13;7.35;;;2.30;;
39680;SDS011;26327;42.550;23.120;2022-07-12T08:06:39;4.72;;;1.80;;
39680;SDS011;26327;42.550;23.120;2022-07-12T08:09:04;4.13;;;1.40;;
39680;SDS011;26327;42.550;23.120;2022-07-12T08:11:30;8.55;;;1.65;;
39680;SDS011;26327;42.550;23.120;2022-07-12T08:13:56;6.75;;;1.40;;
39680;SDS011;26327;42.550;23.120;2022-07-12T08:16:22;5.32;;;1.90;;
39680;SDS011;26327;42.550;23.120;2022-07-12T08:18:47;4.65;;;1.38;;
39680;SDS011;26327;42.550;23.120;2022-07-12T08:21:13;3.40;;;1.40;;
39680;SDS011;26327;42.550;23.120;2022-07-12T08:23:39;4.70;;;1.23;;
39680;SDS011;26327;42.550;23.120;2022-07-12T08:26:05;3.33;;;1.45;;
39680;SDS011;26327;42.550;23.120;2022-07-12T08:28:30;5.63;;;1.50;;
39680;SDS011;26327;42.550;23.120;2022-07-12T08:30:56;2.08;;;0.88;;
39680;SDS011;26327;42.550;23.120;2022-07-12T08:33:22;3.28;;;0.85;;
39680;SDS011;26327;42.550;23.120;2022-07-12T08:35:47;2.65;;;0.90;;
39680;SDS011;26327;42.550;23.120;2022-07-12T08:38:13;1.80;;;0.70;;
39680;SDS011;26327;42.550;23.120;2022-07-12T08:40:41;1.90;;;0.90;;
39680;SDS011;26327;42.550;23.120;2022-07-12T08:43:08;7.93;;;1.05;;
39680;SDS011;26327;42.550;23.120;2022-07-12T08:45:34;2.83;;;1.08;;
39680;SDS011;26327;42.550;23.120;2022-07-12T08:48:00;11.75;;;1.48;;
39680;SDS011;26327;42.550;23.120;2022-07-12T08:50:26;4.90;;;1.00;;
39680;SDS011;26327;42.550;23.120;2022-07-12T08:52:53;4.03;;;1.02;;
39680;SDS011;26327;42.550;23.120;2022-07-12T08:57:54;2.13;;;0.70;;
39680;SDS011;26327;42.550;23.120;2022-07-12T09:00:24;3.78;;;0.90;;
39680;SDS011;26327;42.550;23.120;2022-07-12T09:02:55;3.88;;;0.73;;
39680;SDS011;26327;42.550;23.120;2022-07-12T09:05:25;2.22;;;0.80;;
39680;SDS011;26327;42.550;23.120;2022-07-12T09:08:01;1.88;;;0.50;;
39680;SDS011;26327;42.550;23.120;2022-07-12T09:10:27;4.18;;;0.73;;
39680;SDS011;26327;42.550;23.120;2022-07-12T09:12:53;4.03;;;0.77;;
39680;SDS011;26327;42.550;23.120;2022-07-12T09:15:22;5.15;;;0.77;;
39680;SDS011;26327;42.550;23.120;2022-07-12T09:20:21;2.30;;;0.82;;
39680;SDS011;26327;42.550;23.120;2022-07-12T09:22:51;2.70;;;1.00;;
39680;SDS011;26327;42.550;23.120;2022-07-12T09:25:18;5.43;;;1.08;;
39680;SDS011;26327;42.550;23.120;2022-07-12T09:27:47;5.75;;;1.27;;
39680;SDS011;26327;42.550;23.120;2022-07-12T09:30:15;2.90;;;1.00;;
39680;SDS011;26327;42.550;23.120;2022-07-12T09:32:54;5.05;;;1.23;;
39680;SDS011;26327;42.550;23.120;2022-07-12T09:38:25;4.25;;;1.15;;
39680;SDS011;26327;42.550;23.120;2022-07-12T09:40:51;5.20;;;1.08;;
39680;SDS011;26327;42.550;23.120;2022-07-12T09:43:18;1.73;;;0.75;;
39680;SDS011;26327;42.550;23.120;2022-07-12T09:45:46;3.15;;;1.10;;
39680;SDS011;26327;42.550;23.120;2022-07-12T09:48:12;3.85;;;1.10;;
39680;SDS011;26327;42.550;23.120;2022-07-12T09:50:38;3.78;;;1.25;;
39680;SDS011;26327;42.550;23.120;2022-07-12T09:53:04;3.75;;;1.33;;
39680;SDS011;26327;42.550;23.120;2022-07-12T09:55:32;5.32;;;1.00;;
39680;SDS011;26327;42.550;23.120;2022-07-12T09:58:00;3.47;;;0.98;;
39680;SDS011;26327;42.550;23.120;2022-07-12T10:00:27;5.35;;;1.42;;
39680;SDS011;26327;42.550;23.120;2022-07-12T10:02:54;3.90;;;1.45;;
39680;SDS011;26327;42.550;23.120;2022-07-12T10:05:20;5.22;;;0.80;;
39680;SDS011;26327;42.550;23.120;2022-07-12T10:07:49;4.03;;;0.93;;
39680;SDS011;26327;42.550;23.120;2022-07-12T10:10:15;1.63;;;0.77;;
39680;SDS011;26327;42.550;23.120;2022-07-12T10:12:41;3.28;;;1.15;;
39680;SDS011;26327;42.550;23.120;2022-07-12T10:15:09;2.80;;;0.90;;
39680;SDS011;26327;42.550;23.120;2022-07-12T10:17:40;1.42;;;0.90;;
39680;SDS011;26327;42.550;23.120;2022-07-12T10:20:26;1.27;;;0.80;;
39680;SDS011;26327;42.550;23.120;2022-07-12T10:22:55;12.82;;;1.00;;
39680;SDS011;26327;42.550;23.120;2022-07-12T10:25:41;2.70;;;1.27;;
39680;SDS011;26327;42.550;23.120;2022-07-12T10:28:07;4.28;;;1.00;;
39680;SDS011;26327;42.550;23.120;2022-07-12T10:30:40;4.05;;;0.80;;
39680;SDS011;26327;42.550;23.120;2022-07-12T10:33:14;2.58;;;1.40;;
39680;SDS011;26327;42.550;23.120;2022-07-12T10:35:57;2.00;;;1.17;;
39680;SDS011;26327;42.550;23.120;2022-07-12T10:38:34;5.68;;;1.42;;
39680;SDS011;26327;42.550;23.120;2022-07-12T10:41:21;6.35;;;1.20;;
39680;SDS011;26327;42.550;23.120;2022-07-12T10:44:02;2.38;;;0.80;;
39680;SDS011;26327;42.550;23.120;2022-07-12T10:46:31;3.53;;;0.85;;
39680;SDS011;26327;42.550;23.120;2022-07-12T10:57:01;1.88;;;0.65;;
39680;SDS011;26327;42.550;23.120;2022-07-12T10:59:27;6.10;;;1.95;;
39680;SDS011;26327;42.550;23.120;2022-07-12T11:01:55;4.95;;;1.00;;
39680;SDS011;26327;42.550;23.120;2022-07-12T11:04:21;5.05;;;1.10;;
39680;SDS011;26327;42.550;23.120;2022-07-12T11:06:47;8.32;;;1.50;;
39680;SDS011;26327;42.550;23.120;2022-07-12T11:09:17;4.55;;;1.10;;
39680;SDS011;26327;42.550;23.120;2022-07-12T11:14:10;6.57;;;1.00;;
39680;SDS011;26327;42.550;23.120;2022-07-12T11:16:44;2.45;;;0.85;;
39680;SDS011;26327;42.550;23.120;2022-07-12T11:19:11;3.25;;;1.20;;
39680;SDS011;26327;42.550;23.120;2022-07-12T11:21:36;2.95;;;1.20;;
39680;SDS011;26327;42.550;23.120;2022-07-12T11:24:02;2.63;;;0.88;;
39680;SDS011;26327;42.550;23.120;2022-07-12T11:26:40;2.38;;;0.90;;
39680;SDS011;26327;42.550;23.120;2022-07-12T11:29:05;3.33;;;0.90;;
39680;SDS011;26327;42.550;23.120;2022-07-12T11:31:31;1.15;;;0.90;;
39680;SDS011;26327;42.550;23.120;2022-07-12T11:33:56;2.83;;;0.80;;
39680;SDS011;26327;42.550;23.120;2022-07-12T11:36:24;1.92;;;0.70;;
39680;SDS011;26327;42.550;23.120;2022-07-12T11:38:51;3.97;;;1.27;;
39680;SDS011;26327;42.550;23.120;2022-07-12T11:41:16;4.70;;;1.00;;
39680;SDS011;26327;42.550;23.120;2022-07-12T11:43:42;2.10;;;1.10;;
39680;SDS011;26327;42.550;23.120;2022-07-12T11:46:08;2.25;;;0.85;;
39680;SDS011;26327;42.550;23.120;2022-07-12T11:48:34;2.05;;;0.90;;
39680;SDS011;26327;42.550;23.120;2022-07-12T11:51:08;6.72;;;1.77;;
39680;SDS011;26327;42.550;23.120;2022-07-12T11:53:35;3.88;;;1.00;;
39680;SDS011;26327;42.550;23.120;2022-07-12T11:56:02;2.50;;;1.00;;
39680;SDS011;26327;42.550;23.120;2022-07-12T11:58:29;1.85;;;0.90;;
39680;SDS011;26327;42.550;23.120;2022-07-12T12:00:55;2.47;;;1.02;;
39680;SDS011;26327;42.550;23.120;2022-07-12T12:03:24;1.70;;;1.00;;
39680;SDS011;26327;42.550;23.120;2022-07-12T12:05:55;2.35;;;1.20;;
39680;SDS011;26327;42.550;23.120;2022-07-12T12:08:22;2.42;;;1.05;;
39680;SDS011;26327;42.550;23.120;2022-07-12T12:10:53;6.20;;;1.20;;
39680;SDS011;26327;42.550;23.120;2022-07-12T12:13:23;6.05;;;1.98;;
39680;SDS011;26327;42.550;23.120;2022-07-12T12:15:50;2.05;;;1.00;;
39680;SDS011;26327;42.550;23.120;2022-07-12T12:18:27;4.28;;;1.00;;
39680;SDS011;26327;42.550;23.120;2022-07-12T12:21:01;1.75;;;1.00;;
39680;SDS011;26327;42.550;23.120;2022-07-12T12:23:28;1.58;;;0.90;;
39680;SDS011;26327;42.550;23.120;2022-07-12T12:28:43;2.78;;;1.10;;
39680;SDS011;26327;42.550;23.120;2022-07-12T12:31:12;3.20;;;1.13;;
39680;SDS011;26327;42.550;23.120;2022-07-12T12:33:43;1.52;;;0.85;;
39680;SDS011;26327;42.550;23.120;2022-07-12T12:36:35;1.92;;;0.90;;
39680;SDS011;26327;42.550;23.120;2022-07-12T12:39:02;2.50;;;1.00;;
39680;SDS011;26327;42.550;23.120;2022-07-12T12:41:29;2.67;;;1.20;;
39680;SDS011;26327;42.550;23.120;2022-07-12T12:44:03;3.20;;;1.08;;
39680;SDS011;26327;42.550;23.120;2022-07-12T12:49:51;3.97;;;1.40;;
39680;SDS011;26327;42.550;23.120;2022-07-12T12:52:17;5.03;;;1.20;;
39680;SDS011;26327;42.550;23.120;2022-07-12T12:54:44;4.85;;;1.20;;
39680;SDS011;26327;42.550;23.120;2022-07-12T12:57:11;2.95;;;1.20;;
39680;SDS011;26327;42.550;23.120;2022-07-12T12:59:37;2.58;;;1.10;;
39680;SDS011;26327;42.550;23.120;2022-07-12T13:02:03;2.92;;;1.00;;
39680;SDS011;26327;42.550;23.120;2022-07-12T13:04:30;5.15;;;1.70;;
39680;SDS011;26327;42.550;23.120;2022-07-12T13:06:57;4.00;;;1.13;;
39680;SDS011;26327;42.550;23.120;2022-07-12T13:09:23;2.95;;;1.20;;
39680;SDS011;26327;42.550;23.120;2022-07-12T13:11:49;3.50;;;1.40;;
39680;SDS011;26327;42.550;23.120;2022-07-12T13:14:14;1.67;;;1.20;;
39680;SDS011;26327;42.550;23.120;2022-07-12T13:16:40;2.50;;;1.10;;
39680;SDS011;26327;42.550;23.120;2022-07-12T13:19:05;1.48;;;1.00;;
39680;SDS011;26327;42.550;23.120;2022-07-12T13:21:32;5.05;;;1.40;;
39680;SDS011;26327;42.550;23.120;2022-07-12T13:23:58;2.28;;;1.02;;
39680;SDS011;26327;42.550;23.120;2022-07-12T13:26:23;3.35;;;1.48;;
39680;SDS011;26327;42.550;23.120;2022-07-12T13:28:49;4.47;;;1.10;;
39680;SDS011;26327;42.550;23.120;2022-07-12T13:31:14;3.35;;;0.98;;
39680;SDS011;26327;42.550;23.120;2022-07-12T13:33:40;4.57;;;0.95;;
39680;SDS011;26327;42.550;23.120;2022-07-12T13:36:05;3.90;;;1.10;;
39680;SDS011;26327;42.550;23.120;2022-07-12T13:38:31;3.40;;;1.30;;
39680;SDS011;26327;42.550;23.120;2022-07-12T13:40:56;4.25;;;1.00;;
39680;SDS011;26327;42.550;23.120;2022-07-12T13:43:22;3.90;;;1.15;;
39680;SDS011;26327;42.550;23.120;2022-07-12T13:45:49;2.75;;;1.10;;
39680;SDS011;26327;42.550;23.120;2022-07-12T13:48:15;2.55;;;1.00;;
39680;SDS011;26327;42.550;23.120;2022-07-12T13:50:43;2.10;;;1.20;;
39680;SDS011;26327;42.550;23.120;2022-07-12T13:53:08;2.22;;;1.00;;
39680;SDS011;26327;42.550;23.120;2022-07-12T13:55:34;2.35;;;1.40;;
39680;SDS011;26327;42.550;23.120;2022-07-12T13:58:00;2.20;;;1.10;;
39680;SDS011;26327;42.550;23.120;2022-07-12T14:00:26;2.20;;;1.05;;
39680;SDS011;26327;42.550;23.120;2022-07-12T14:02:51;3.05;;;0.93;;
39680;SDS011;26327;42.550;23.120;2022-07-12T14:05:17;1.55;;;0.90;;
39680;SDS011;26327;42.550;23.120;2022-07-12T14:07:42;9.15;;;1.35;;
39680;SDS011;26327;42.550;23.120;2022-07-12T14:10:10;1.65;;;1.00;;
39680;SDS011;26327;42.550;23.120;2022-07-12T14:12:37;3.03;;;0.90;;
39680;SDS011;26327;42.550;23.120;2022-07-12T14:15:03;2.90;;;0.90;;
39680;SDS011;26327;42.550;23.120;2022-07-12T14:18:01;1.92;;;1.10;;
39680;SDS011;26327;42.550;23.120;2022-07-12T14:20:29;2.67;;;1.10;;
39680;SDS011;26327;42.550;23.120;2022-07-12T14:22:55;1.73;;;0.80;;
39680;SDS011;26327;42.550;23.120;2022-07-12T14:25:21;1.67;;;0.90;;
39680;SDS011;26327;42.550;23.120;2022-07-12T14:27:46;7.07;;;1.10;;
39680;SDS011;26327;42.550;23.120;2022-07-12T14:30:12;1.50;;;0.95;;
39680;SDS011;26327;42.550;23.120;2022-07-12T14:32:39;2.03;;;0.90;;
39680;SDS011;26327;42.550;23.120;2022-07-12T14:35:05;4.72;;;1.00;;
39680;SDS011;26327;42.550;23.120;2022-07-12T14:37:32;4.10;;;1.08;;
39680;SDS011;26327;42.550;23.120;2022-07-12T14:40:05;3.17;;;1.45;;
39680;SDS011;26327;42.550;23.120;2022-07-12T14:42:31;4.25;;;1.25;;
39680;SDS011;26327;42.550;23.120;2022-07-12T14:44:57;4.70;;;1.05;;
39680;SDS011;26327;42.550;23.120;2022-07-12T14:47:23;3.28;;;0.95;;
39680;SDS011;26327;42.550;23.120;2022-07-12T14:49:48;2.70;;;1.00;;
39680;SDS011;26327;42.550;23.120;2022-07-12T14:52:15;6.38;;;1.52;;
39680;SDS011;26327;42.550;23.120;2022-07-12T14:54:41;3.17;;;1.23;;
39680;SDS011;26327;42.550;23.120;2022-07-12T14:57:07;4.85;;;1.50;;
39680;SDS011;26327;42.550;23.120;2022-07-12T14:59:32;1.80;;;0.93;;
39680;SDS011;26327;42.550;23.120;2022-07-12T15:01:58;2.40;;;0.80;;
39680;SDS011;26327;42.550;23.120;2022-07-12T15:04:24;3.33;;;0.90;;
39680;SDS011;26327;42.550;23.120;2022-07-12T15:06:49;3.40;;;1.17;;
39680;SDS011;26327;42.550;23.120;2022-07-12T15:09:15;7.07;;;1.35;;
39680;SDS011;26327;42.550;23.120;2022-07-12T15:11:41;3.95;;;1.05;;
39680;SDS011;26327;42.550;23.120;2022-07-12T15:14:07;4.10;;;1.10;;
39680;SDS011;26327;42.550;23.120;2022-07-12T15:16:32;4.63;;;1.05;;
39680;SDS011;26327;42.550;23.120;2022-07-12T15:18:58;2.13;;;1.15;;
39680;SDS011;26327;42.550;23.120;2022-07-12T15:21:23;2.78;;;0.90;;
39680;SDS011;26327;42.550;23.120;2022-07-12T15:23:50;2.97;;;1.00;;
39680;SDS011;26327;42.550;23.120;2022-07-12T15:26:15;2.42;;;1.08;;
39680;SDS011;26327;42.550;23.120;2022-07-12T15:28:51;2.22;;;1.20;;
39680;SDS011;26327;42.550;23.120;2022-07-12T15:31:21;3.53;;;1.05;;
39680;SDS011;26327;42.550;23.120;2022-07-12T15:33:47;5.68;;;1.20;;
39680;SDS011;26327;42.550;23.120;2022-07-12T15:36:13;3.25;;;1.20;;
39680;SDS011;26327;42.550;23.120;2022-07-12T15:38:39;7.47;;;1.30;;
39680;SDS011;26327;42.550;23.120;2022-07-12T15:41:07;2.83;;;1.13;;
39680;SDS011;26327;42.550;23.120;2022-07-12T15:43:33;1.88;;;0.93;;
39680;SDS011;26327;42.550;23.120;2022-07-12T15:45:59;1.77;;;0.93;;
39680;SDS011;26327;42.550;23.120;2022-07-12T15:48:24;2.72;;;0.90;;
39680;SDS011;26327;42.550;23.120;2022-07-12T15:50:50;3.47;;;1.00;;
39680;SDS011;26327;42.550;23.120;2022-07-12T15:53:15;2.65;;;0.98;;
39680;SDS011;26327;42.550;23.120;2022-07-12T15:56:03;2.63;;;0.88;;
39680;SDS011;26327;42.550;23.120;2022-07-12T15:58:31;3.08;;;1.08;;
39680;SDS011;26327;42.550;23.120;2022-07-12T16:01:07;3.20;;;1.00;;
39680;SDS011;26327;42.550;23.120;2022-07-12T16:03:34;1.80;;;0.88;;
39680;SDS011;26327;42.550;23.120;2022-07-12T16:06:01;2.33;;;0.80;;
39680;SDS011;26327;42.550;23.120;2022-07-12T16:08:27;3.22;;;1.10;;
39680;SDS011;26327;42.550;23.120;2022-07-12T16:10:54;4.20;;;1.02;;
39680;SDS011;26327;42.550;23.120;2022-07-12T16:13:20;1.95;;;0.90;;
39680;SDS011;26327;42.550;23.120;2022-07-12T16:15:45;3.53;;;1.00;;
39680;SDS011;26327;42.550;23.120;2022-07-12T16:18:11;1.73;;;0.88;;
39680;SDS011;26327;42.550;23.120;2022-07-12T16:20:37;2.08;;;0.90;;
39680;SDS011;26327;42.550;23.120;2022-07-12T16:23:03;3.58;;;0.80;;
39680;SDS011;26327;42.550;23.120;2022-07-12T16:25:30;0.75;;;0.65;;
39680;SDS011;26327;42.550;23.120;2022-07-12T16:27:57;1.88;;;0.73;;
39680;SDS011;26327;42.550;23.120;2022-07-12T16:30:23;3.33;;;0.77;;
39680;SDS011;26327;42.550;23.120;2022-07-12T16:32:49;3.72;;;0.90;;
39680;SDS011;26327;42.550;23.120;2022-07-12T16:35:14;3.10;;;0.80;;
39680;SDS011;26327;42.550;23.120;2022-07-12T16:37:40;1.65;;;0.80;;
39680;SDS011;26327;42.550;23.120;2022-07-12T16:40:06;1.80;;;0.80;;
39680;SDS011;26327;42.550;23.120;2022-07-12T16:42:33;4.85;;;1.02;;
39680;SDS011;26327;42.550;23.120;2022-07-12T16:44:59;1.95;;;0.82;;
39680;SDS011;26327;42.550;23.120;2022-07-12T16:47:24;4.68;;;1.17;;
39680;SDS011;26327;42.550;23.120;2022-07-12T16:49:50;3.35;;;0.90;;
39680;SDS011;26327;42.550;23.120;2022-07-12T16:52:15;5.65;;;1.13;;
39680;SDS011;26327;42.550;23.120;2022-07-12T16:54:40;4.22;;;1.20;;
39680;SDS011;26327;42.550;23.120;2022-07-12T16:57:06;3.55;;;1.25;;
39680;SDS011;26327;42.550;23.120;2022-07-12T16:59:31;3.25;;;1.05;;
39680;SDS011;26327;42.550;23.120;2022-07-12T17:01:57;4.13;;;1.23;;
39680;SDS011;26327;42.550;23.120;2022-07-12T17:04:24;3.92;;;1.40;;
39680;SDS011;26327;42.550;23.120;2022-07-12T17:06:49;5.75;;;1.40;;
39680;SDS011;26327;42.550;23.120;2022-07-12T17:09:14;4.53;;;1.45;;
39680;SDS011;26327;42.550;23.120;2022-07-12T17:11:40;2.88;;;1.17;;
39680;SDS011;26327;42.550;23.120;2022-07-12T17:14:06;5.85;;;1.73;;
39680;SDS011;26327;42.550;23.120;2022-07-12T17:16:32;4.38;;;1.10;;
39680;SDS011;26327;42.550;23.120;2022-07-12T17:18:57;4.22;;;1.30;;
39680;SDS011;26327;42.550;23.120;2022-07-12T17:21:29;3.78;;;1.23;;
39680;SDS011;26327;42.550;23.120;2022-07-12T17:23:55;4.25;;;1.48;;
39680;SDS011;26327;42.550;23.120;2022-07-12T17:26:20;4.53;;;1.45;;
39680;SDS011;26327;42.550;23.120;2022-07-12T17:28:46;3.50;;;1.40;;
39680;SDS011;26327;42.550;23.120;2022-07-12T17:31:11;7.35;;;1.50;;
39680;SDS011;26327;42.550;23.120;2022-07-12T17:33:37;6.75;;;1.70;;
39680;SDS011;26327;42.550;23.120;2022-07-12T17:36:02;7.93;;;1.50;;
39680;SDS011;26327;42.550;23.120;2022-07-12T17:38:28;9.90;;;1.73;;
39680;SDS011;26327;42.550;23.120;2022-07-12T17:40:53;3.60;;;1.90;;
39680;SDS011;26327;42.550;23.120;2022-07-12T17:43:20;5.47;;;1.90;;
39680;SDS011;26327;42.550;23.120;2022-07-12T17:45:46;7.65;;;1.83;;
39680;SDS011;26327;42.550;23.120;2022-07-12T17:48:11;3.90;;;1.90;;
39680;SDS011;26327;42.550;23.120;2022-07-12T17:50:36;3.33;;;1.80;;
39680;SDS011;26327;42.550;23.120;2022-07-12T17:53:02;7.65;;;2.40;;
39680;SDS011;26327;42.550;23.120;2022-07-12T17:55:27;4.18;;;1.70;;
39680;SDS011;26327;42.550;23.120;2022-07-12T17:57:53;9.90;;;1.73;;
39680;SDS011;26327;42.550;23.120;2022-07-12T18:00:37;9.13;;;2.08;;
39680;SDS011;26327;42.550;23.120;2022-07-12T18:03:03;3.53;;;1.80;;
39680;SDS011;26327;42.550;23.120;2022-07-12T18:05:29;3.85;;;2.50;;
39680;SDS011;26327;42.550;23.120;2022-07-12T18:07:54;6.80;;;3.38;;
39680;SDS011;26327;42.550;23.120;2022-07-12T18:10:20;5.50;;;2.60;;
39680;SDS011;26327;42.550;23.120;2022-07-12T18:12:46;5.82;;;2.97;;
39680;SDS011;26327;42.550;23.120;2022-07-12T18:15:29;4.22;;;2.42;;
39680;SDS011;26327;42.550;23.120;2022-07-12T18:17:55;6.55;;;2.45;;
39680;SDS011;26327;42.550;23.120;2022-07-12T18:20:28;6.25;;;2.40;;
39680;SDS011;26327;42.550;23.120;2022-07-12T18:22:54;3.80;;;2.45;;
39680;SDS011;26327;42.550;23.120;2022-07-12T18:25:20;6.95;;;2.97;;
39680;SDS011;26327;42.550;23.120;2022-07-12T18:27:46;6.20;;;2.40;;
39680;SDS011;26327;42.550;23.120;2022-07-12T18:30:12;5.68;;;3.15;;
39680;SDS011;26327;42.550;23.120;2022-07-12T18:32:38;11.75;;;4.30;;
39680;SDS011;26327;42.550;23.120;2022-07-12T18:35:04;10.35;;;3.88;;
39680;SDS011;26327;42.550;23.120;2022-07-12T18:37:30;5.78;;;3.50;;
39680;SDS011;26327;42.550;23.120;2022-07-12T18:39:55;8.77;;;3.08;;
39680;SDS011;26327;42.550;23.120;2022-07-12T18:42:21;6.05;;;3.58;;
39680;SDS011;26327;42.550;23.120;2022-07-12T18:44:46;8.50;;;3.22;;
39680;SDS011;26327;42.550;23.120;2022-07-12T18:47:12;5.47;;;2.83;;
39680;SDS011;26327;42.550;23.120;2022-07-12T18:49:39;7.75;;;3.47;;
39680;SDS011;26327;42.550;23.120;2022-07-12T18:52:04;5.35;;;3.00;;
39680;SDS011;26327;42.550;23.120;2022-07-12T18:54:30;4.10;;;2.80;;
39680;SDS011;26327;42.550;23.120;2022-07-12T18:56:55;6.90;;;3.30;;
39680;SDS011;26327;42.550;23.120;2022-07-12T18:59:21;5.88;;;3.15;;
39680;SDS011;26327;42.550;23.120;2022-07-12T19:01:47;4.20;;;2.83;;
39680;SDS011;26327;42.550;23.120;2022-07-12T19:04:12;4.70;;;3.20;;
39680;SDS011;26327;42.550;23.120;2022-07-12T19:06:37;9.23;;;3.63;;
39680;SDS011;26327;42.550;23.120;2022-07-12T19:09:03;5.03;;;3.20;;
39680;SDS011;26327;42.550;23.120;2022-07-12T19:11:28;5.25;;;3.20;;
39680;SDS011;26327;42.550;23.120;2022-07-12T19:13:54;4.60;;;3.40;;
39680;SDS011;26327;42.550;23.120;2022-07-12T19:16:19;5.22;;;2.90;;
39680;SDS011;26327;42.550;23.120;2022-07-12T19:18:45;6.63;;;3.33;;
39680;SDS011;26327;42.550;23.120;2022-07-12T19:21:10;5.82;;;3.38;;
39680;SDS011;26327;42.550;23.120;2022-07-12T19:23:36;7.75;;;3.50;;
39680;SDS011;26327;42.550;23.120;2022-07-12T19:26:01;3.97;;;3.25;;
39680;SDS011;26327;42.550;23.120;2022-07-12T19:28:26;5.00;;;3.10;;
39680;SDS011;26327;42.550;23.120;2022-07-12T19:30:52;5.53;;;3.33;;
39680;SDS011;26327;42.550;23.120;2022-07-12T19:33:17;8.20;;;3.63;;
39680;SDS011;26327;42.550;23.120;2022-07-12T19:35:43;5.72;;;3.20;;
39680;SDS011;26327;42.550;23.120;2022-07-12T19:38:08;6.05;;;3.70;;
39680;SDS011;26327;42.550;23.120;2022-07-12T19:40:35;6.15;;;3.75;;
39680;SDS011;26327;42.550;23.120;2022-07-12T19:43:00;8.43;;;4.10;;
39680;SDS011;26327;42.550;23.120;2022-07-12T19:45:26;5.97;;;3.65;;
39680;SDS011;26327;42.550;23.120;2022-07-12T19:47:52;6.25;;;3.90;;
39680;SDS011;26327;42.550;23.120;2022-07-12T19:50:17;5.18;;;3.15;;
39680;SDS011;26327;42.550;23.120;2022-07-12T19:52:43;5.47;;;3.47;;
39680;SDS011;26327;42.550;23.120;2022-07-12T19:55:09;5.90;;;3.13;;
39680;SDS011;26327;42.550;23.120;2022-07-12T19:57:35;5.95;;;3.03;;
39680;SDS011;26327;42.550;23.120;2022-07-12T20:00:01;4.57;;;3.35;;
39680;SDS011;26327;42.550;23.120;2022-07-12T20:02:31;6.25;;;3.60;;
39680;SDS011;26327;42.550;23.120;2022-07-12T20:04:56;5.60;;;3.63;;
39680;SDS011;26327;42.550;23.120;2022-07-12T20:07:22;5.68;;;3.33;;
39680;SDS011;26327;42.550;23.120;2022-07-12T20:09:47;5.75;;;3.88;;
39680;SDS011;26327;42.550;23.120;2022-07-12T20:12:12;6.18;;;4.18;;
39680;SDS011;26327;42.550;23.120;2022-07-12T20:14:38;5.93;;;3.75;;
39680;SDS011;26327;42.550;23.120;2022-07-12T20:17:04;4.88;;;3.67;;
39680;SDS011;26327;42.550;23.120;2022-07-12T20:19:29;8.02;;;4.55;;
39680;SDS011;26327;42.550;23.120;2022-07-12T20:21:57;6.18;;;3.75;;
39680;SDS011;26327;42.550;23.120;2022-07-12T20:24:23;10.73;;;6.95;;
39680;SDS011;26327;42.550;23.120;2022-07-12T20:26:49;14.38;;;7.38;;
39680;SDS011;26327;42.550;23.120;2022-07-12T20:29:15;6.50;;;4.93;;
39680;SDS011;26327;42.550;23.120;2022-07-12T20:31:41;5.70;;;3.90;;
39680;SDS011;26327;42.550;23.120;2022-07-12T20:34:06;7.43;;;3.50;;
39680;SDS011;26327;42.550;23.120;2022-07-12T20:36:50;6.63;;;3.60;;
39680;SDS011;26327;42.550;23.120;2022-07-12T20:39:15;8.55;;;4.30;;
39680;SDS011;26327;42.550;23.120;2022-07-12T20:41:46;6.15;;;3.70;;
39680;SDS011;26327;42.550;23.120;2022-07-12T20:44:15;7.65;;;3.55;;
39680;SDS011;26327;42.550;23.120;2022-07-12T20:46:41;7.38;;;4.55;;
39680;SDS011;26327;42.550;23.120;2022-07-12T20:49:07;6.82;;;4.53;;
39680;SDS011;26327;42.550;23.120;2022-07-12T20:51:33;4.68;;;3.97;;
39680;SDS011;26327;42.550;23.120;2022-07-12T20:53:58;6.95;;;3.65;;
39680;SDS011;26327;42.550;23.120;2022-07-12T20:56:23;9.15;;;4.30;;
39680;SDS011;26327;42.550;23.120;2022-07-12T20:58:49;8.75;;;4.20;;
39680;SDS011;26327;42.550;23.120;2022-07-12T21:01:15;7.50;;;4.30;;
39680;SDS011;26327;42.550;23.120;2022-07-12T21:03:40;5.50;;;3.90;;
39680;SDS011;26327;42.550;23.120;2022-07-12T21:06:05;5.22;;;3.92;;
39680;SDS011;26327;42.550;23.120;2022-07-12T21:08:31;8.38;;;4.63;;
39680;SDS011;26327;42.550;23.120;2022-07-12T21:10:56;8.90;;;4.30;;
39680;SDS011;26327;42.550;23.120;2022-07-12T21:13:22;6.40;;;5.00;;
39680;SDS011;26327;42.550;23.120;2022-07-12T21:15:48;7.72;;;4.22;;
39680;SDS011;26327;42.550;23.120;2022-07-12T21:18:14;8.82;;;4.03;;
39680;SDS011;26327;42.550;23.120;2022-07-12T21:20:40;7.20;;;4.18;;
39680;SDS011;26327;42.550;23.120;2022-07-12T21:23:06;7.13;;;3.45;;
39680;SDS011;26327;42.550;23.120;2022-07-12T21:25:32;8.23;;;3.80;;
39680;SDS011;26327;42.550;23.120;2022-07-12T21:27:58;6.82;;;3.95;;
39680;SDS011;26327;42.550;23.120;2022-07-12T21:30:24;6.35;;;3.70;;
39680;SDS011;26327;42.550;23.120;2022-07-12T21:32:50;7.20;;;4.20;;
39680;SDS011;26327;42.550;23.120;2022-07-12T21:35:15;5.55;;;4.25;;
39680;SDS011;26327;42.550;23.120;2022-07-12T21:37:41;5.28;;;4.18;;
39680;SDS011;26327;42.550;23.120;2022-07-12T21:40:07;4.72;;;3.85;;
39680;SDS011;26327;42.550;23.120;2022-07-12T21:42:32;4.97;;;3.70;;
39680;SDS011;26327;42.550;23.120;2022-07-12T21:44:58;4.38;;;3.60;;
39680;SDS011;26327;42.550;23.120;2022-07-12T21:47:25;6.95;;;4.20;;
39680;SDS011;26327;42.550;23.120;2022-07-12T21:49:51;7.95;;;4.10;;
39680;SDS011;26327;42.550;23.120;2022-07-12T21:52:16;5.80;;;4.00;;
39680;SDS011;26327;42.550;23.120;2022-07-12T21:54:42;5.22;;;4.20;;
39680;SDS011;26327;42.550;23.120;2022-07-12T21:57:08;5.85;;;3.95;;
39680;SDS011;26327;42.550;23.120;2022-07-12T21:59:33;5.68;;;4.15;;
39680;SDS011;26327;42.550;23.120;2022-07-12T22:01:59;9.40;;;4.13;;
39680;SDS011;26327;42.550;23.120;2022-07-12T22:04:24;5.72;;;4.00;;
39680;SDS011;26327;42.550;23.120;2022-07-12T22:06:49;6.18;;;3.95;;
39680;SDS011;26327;42.550;23.120;2022-07-12T22:09:15;5.47;;;3.83;;
39680;SDS011;26327;42.550;23.120;2022-07-12T22:11:40;5.65;;;4.10;;
39680;SDS011;26327;42.550;23.120;2022-07-12T22:14:06;7.75;;;4.55;;
39680;SDS011;26327;42.550;23.120;2022-07-12T22:16:32;5.80;;;4.13;;
39680;SDS011;26327;42.550;23.120;2022-07-12T22:18:57;4.70;;;3.92;;
39680;SDS011;26327;42.550;23.120;2022-07-12T22:21:23;4.80;;;3.70;;
39680;SDS011;26327;42.550;23.120;2022-07-12T22:23:48;5.70;;;3.75;;